createdAt,value
2018-01-04T00:00:31.730Z,1.87
2018-01-04T00:01:36.200Z,1.75
2018-01-04T00:02:40.701Z,1.17
2018-01-04T00:03:45.919Z,0.90
2018-01-04T00:04:51.137Z,0.85
2018-01-04T00:05:56.365Z,0.70
2018-01-04T00:07:00.832Z,0.70
2018-01-04T00:08:05.328Z,0.98
2018-01-04T00:09:10.064Z,0.77
2018-01-04T00:10:14.713Z,0.70
2018-01-04T00:11:19.185Z,0.70
2018-01-04T00:12:23.641Z,0.90
2018-01-04T00:13:28.983Z,0.70
2018-01-04T00:14:34.202Z,0.85
2018-01-04T00:15:39.043Z,0.70
2018-01-04T00:16:43.331Z,0.65
2018-01-04T00:17:48.572Z,0.70
2018-01-04T00:18:53.825Z,0.80
2018-01-04T00:19:58.274Z,0.60
2018-01-04T00:21:02.847Z,0.80
2018-01-04T00:22:07.201Z,0.98
2018-01-04T00:23:11.810Z,1.20
2018-01-04T00:24:16.404Z,0.70
2018-01-04T00:25:20.885Z,0.90
2018-01-04T00:26:25.411Z,0.70
2018-01-04T00:27:29.948Z,0.90
2018-01-04T00:28:34.440Z,0.82
2018-01-04T00:29:39.092Z,0.80
2018-01-04T00:30:43.596Z,1.30
2018-01-04T00:31:48.129Z,1.08
2018-01-04T00:32:52.738Z,1.00
2018-01-04T00:33:57.330Z,1.00
2018-01-04T00:35:01.838Z,1.35
2018-01-04T00:36:06.405Z,0.85
2018-01-04T00:37:11.627Z,0.93
2018-01-04T00:38:16.090Z,0.95
2018-01-04T00:39:20.559Z,1.42
2018-01-04T00:40:25.822Z,1.08
2018-01-04T00:41:30.313Z,1.15
2018-01-04T00:42:35.529Z,0.75
2018-01-04T00:43:40.772Z,0.90
2018-01-04T00:44:45.254Z,1.10
2018-01-04T00:45:50.755Z,0.80
2018-01-04T00:46:55.232Z,2.30
2018-01-04T00:47:59.710Z,0.85
2018-01-04T00:49:04.174Z,1.00
2018-01-04T00:50:08.640Z,1.05
2018-01-04T00:51:13.125Z,1.00
2018-01-04T00:52:17.580Z,0.70
2018-01-04T00:53:22.807Z,1.35
2018-01-04T00:54:27.263Z,0.80
2018-01-04T00:55:31.715Z,0.90
2018-01-04T00:56:36.976Z,1.20
2018-01-04T00:57:41.422Z,1.00
2018-01-04T00:58:45.905Z,1.30
2018-01-04T00:59:50.372Z,1.12
2018-01-04T01:00:54.834Z,0.90
2018-01-04T01:01:59.313Z,1.45
2018-01-04T01:03:04.542Z,1.20
2018-01-04T01:04:10.030Z,1.10
2018-01-04T01:05:14.476Z,1.37
2018-01-04T01:06:19.726Z,1.00
2018-01-04T01:07:24.202Z,1.08
2018-01-04T01:08:28.682Z,0.95
2018-01-04T01:09:33.177Z,0.90
2018-01-04T01:10:37.652Z,1.00
2018-01-04T01:11:42.112Z,0.70
2018-01-04T01:12:46.616Z,0.90
2018-01-04T01:13:51.078Z,1.20
2018-01-04T01:14:55.544Z,1.08
2018-01-04T01:16:00.073Z,1.02
2018-01-04T01:17:04.564Z,1.05
2018-01-04T01:18:09.062Z,1.05
2018-01-04T01:19:13.520Z,1.27
2018-01-04T01:20:17.997Z,0.93
2018-01-04T01:21:22.451Z,0.80
2018-01-04T01:22:26.917Z,0.80
2018-01-04T01:23:31.420Z,0.98
2018-01-04T01:24:35.880Z,1.20
2018-01-04T01:25:40.341Z,1.00
2018-01-04T01:26:44.817Z,1.00
2018-01-04T01:27:49.275Z,1.08
2018-01-04T01:28:53.782Z,0.90
2018-01-04T01:29:58.260Z,0.90
2018-01-04T01:31:03.479Z,0.90
2018-01-04T01:32:07.931Z,0.80
2018-01-04T01:33:12.378Z,1.75
2018-01-04T01:34:16.861Z,0.90
2018-01-04T01:35:21.337Z,0.80
2018-01-04T01:36:26.551Z,0.88
2018-01-04T01:37:31.769Z,0.88
2018-01-04T01:38:36.247Z,0.62
2018-01-04T01:39:40.760Z,0.93
2018-01-04T01:40:45.239Z,0.73
2018-01-04T01:41:50.477Z,0.80
2018-01-04T01:42:54.929Z,1.02
2018-01-04T01:43:59.409Z,0.75
2018-01-04T01:45:03.891Z,0.70
2018-01-04T01:46:09.120Z,0.73
2018-01-04T01:47:14.021Z,0.95
2018-01-04T01:48:19.429Z,1.00
2018-01-04T01:49:23.896Z,0.60
2018-01-04T01:50:29.141Z,0.90
2018-01-04T01:51:33.613Z,0.80
2018-01-04T01:52:38.067Z,0.90
2018-01-04T01:53:42.532Z,0.80
2018-01-04T01:54:47.001Z,0.80
2018-01-04T01:55:51.505Z,1.12
2018-01-04T01:56:55.980Z,1.12
2018-01-04T01:58:00.437Z,1.02
2018-01-04T01:59:04.916Z,3.17
2018-01-04T02:00:09.824Z,1.10
2018-01-04T02:01:15.145Z,1.80
2018-01-04T02:02:21.117Z,1.55
2018-01-04T02:03:26.393Z,1.17
2018-01-04T02:04:30.841Z,1.05
2018-01-04T02:05:36.086Z,1.87
2018-01-04T02:06:41.349Z,1.10
2018-01-04T02:07:45.794Z,1.00
2018-01-04T02:08:51.032Z,1.35
2018-01-04T02:09:55.496Z,0.90
2018-01-04T02:10:59.968Z,2.03
2018-01-04T02:12:05.244Z,1.62
2018-01-04T02:13:09.698Z,1.20
2018-01-04T02:14:14.154Z,2.67
2018-01-04T02:15:18.610Z,1.85
2018-01-04T02:16:23.062Z,1.75
2018-01-04T02:17:27.542Z,1.30
2018-01-04T02:20:22.769Z,1.37
2018-01-04T02:21:39.346Z,1.37
2018-01-04T02:22:55.110Z,1.45
2018-01-04T02:23:58.930Z,1.60
2018-01-04T02:25:15.448Z,1.10
2018-01-04T02:26:31.074Z,1.30
2018-01-04T02:27:48.093Z,1.35
2018-01-04T02:28:58.025Z,1.12
2018-01-04T02:30:13.832Z,1.00
2018-01-04T02:31:30.251Z,1.00
2018-01-04T02:32:46.007Z,1.50
2018-01-04T02:34:01.723Z,1.30
2018-01-04T02:35:21.286Z,2.75
2018-01-04T02:36:37.078Z,1.15
2018-01-04T02:37:52.625Z,0.98
2018-01-04T02:39:08.387Z,2.10
2018-01-04T02:41:59.432Z,1.37
2018-01-04T02:43:15.229Z,1.62
2018-01-04T02:44:31.755Z,1.58
2018-01-04T02:45:56.226Z,1.35
2018-01-04T02:47:00.691Z,1.58
2018-01-04T02:48:05.156Z,0.90
2018-01-04T02:49:09.626Z,1.20
2018-01-04T02:50:14.129Z,1.15
2018-01-04T02:51:18.578Z,1.02
2018-01-04T02:52:23.028Z,2.45
2018-01-04T02:53:27.502Z,1.60
2018-01-04T02:54:31.976Z,1.50
2018-01-04T02:55:37.225Z,1.00
2018-01-04T02:56:42.480Z,1.12
2018-01-04T02:57:46.954Z,3.78
2018-01-04T02:58:51.416Z,0.90
2018-01-04T02:59:55.692Z,1.02
2018-01-04T03:01:00.955Z,1.75
2018-01-04T03:02:05.434Z,1.60
2018-01-04T03:03:10.658Z,1.37
2018-01-04T03:04:15.895Z,1.12
2018-01-04T03:05:21.129Z,1.00
2018-01-04T03:06:26.064Z,1.20
2018-01-04T03:07:30.533Z,1.25
2018-01-04T03:08:34.985Z,3.05
2018-01-04T03:09:39.442Z,0.90
2018-01-04T03:10:43.903Z,1.08
2018-01-04T03:11:48.387Z,4.00
2018-01-04T03:12:53.602Z,1.42
2018-01-04T03:13:58.077Z,0.93
2018-01-04T03:15:02.535Z,0.90
2018-01-04T03:16:07.009Z,0.80
2018-01-04T03:17:11.506Z,0.82
2018-01-04T03:18:15.975Z,1.08
2018-01-04T03:19:21.188Z,1.12
2018-01-04T03:20:25.638Z,1.37
2018-01-04T03:21:29.905Z,1.60
2018-01-04T03:22:39.893Z,1.30
2018-01-04T03:23:44.338Z,0.90
2018-01-04T03:24:54.222Z,1.08
2018-01-04T03:26:04.909Z,1.00
2018-01-04T03:27:15.171Z,1.20
2018-01-04T03:28:25.233Z,0.93
2018-01-04T03:29:29.691Z,1.15
2018-01-04T03:30:39.760Z,1.83
2018-01-04T03:31:49.808Z,0.80
2018-01-04T03:32:59.797Z,1.45
2018-01-04T03:34:10.510Z,1.10
2018-01-04T03:36:56.368Z,2.45
2018-01-04T03:39:40.447Z,1.27
2018-01-04T03:40:50.372Z,1.20
2018-01-04T03:42:13.374Z,1.00
2018-01-04T03:43:24.156Z,1.23
2018-01-04T03:44:34.208Z,1.25
2018-01-04T03:45:44.310Z,1.40
2018-01-04T03:46:54.427Z,1.60
2018-01-04T03:48:04.449Z,1.60
2018-01-04T03:49:14.528Z,1.80
2018-01-04T03:50:25.440Z,1.30
2018-01-04T03:51:35.351Z,1.85
2018-01-04T03:52:40.997Z,1.52
2018-01-04T03:53:51.201Z,1.45
2018-01-04T03:55:01.230Z,1.40
2018-01-04T03:56:11.386Z,1.70
2018-01-04T03:57:21.328Z,1.62
2018-01-04T03:58:25.620Z,1.80
2018-01-04T03:59:35.537Z,1.75
2018-01-04T04:00:45.462Z,1.92
2018-01-04T04:01:55.398Z,1.98
2018-01-04T04:02:59.896Z,2.67
2018-01-04T04:04:04.946Z,2.20
2018-01-04T04:05:14.863Z,1.70
2018-01-04T04:06:37.762Z,1.83
2018-01-04T04:07:42.239Z,1.60
2018-01-04T04:08:46.714Z,1.80
2018-01-04T04:09:51.190Z,2.30
2018-01-04T04:10:55.659Z,1.80
2018-01-04T04:12:00.932Z,1.50
2018-01-04T04:13:05.400Z,1.80
2018-01-04T04:14:10.666Z,2.30
2018-01-04T04:15:15.131Z,1.73
2018-01-04T04:16:20.350Z,1.80
2018-01-04T04:17:25.569Z,2.03
2018-01-04T04:18:31.534Z,1.98
2018-01-04T04:19:36.786Z,1.60
2018-01-04T04:20:41.234Z,2.45
2018-01-04T04:21:45.706Z,1.95
2018-01-04T04:22:50.155Z,1.83
2018-01-04T04:23:54.644Z,1.90
2018-01-04T04:24:59.138Z,1.85
2018-01-04T04:26:03.618Z,1.80
2018-01-04T04:27:08.669Z,2.12
2018-01-04T04:28:13.159Z,1.62
2018-01-04T04:29:17.638Z,2.50
2018-01-04T04:30:22.161Z,1.83
2018-01-04T04:31:26.618Z,1.95
2018-01-04T04:32:31.105Z,1.80
2018-01-04T04:33:36.332Z,3.15
2018-01-04T04:34:41.555Z,1.87
2018-01-04T04:35:46.048Z,2.78
2018-01-04T04:36:50.858Z,2.15
2018-01-04T04:37:55.325Z,2.40
2018-01-04T04:39:00.709Z,1.90
2018-01-04T04:40:05.162Z,1.85
2018-01-04T04:41:10.432Z,3.10
2018-01-04T04:42:14.902Z,3.15
2018-01-04T04:43:20.132Z,1.95
2018-01-04T04:44:25.428Z,2.47
2018-01-04T04:45:30.071Z,2.35
2018-01-04T04:46:35.338Z,2.30
2018-01-04T04:47:39.813Z,2.67
2018-01-04T04:48:45.035Z,2.37
2018-01-04T04:49:50.256Z,2.50
2018-01-04T04:50:54.721Z,1.95
2018-01-04T04:51:59.218Z,2.55
2018-01-04T04:53:03.678Z,2.20
2018-01-04T04:54:08.158Z,2.00
2018-01-04T04:55:12.623Z,2.85
2018-01-04T04:56:17.899Z,2.67
2018-01-04T04:57:22.066Z,1.85
2018-01-04T04:58:27.278Z,2.28
2018-01-04T04:59:31.752Z,2.60
2018-01-04T05:00:36.210Z,3.87
2018-01-04T05:01:41.433Z,2.78
2018-01-04T05:02:45.914Z,2.30
2018-01-04T05:03:50.388Z,2.37
2018-01-04T05:04:54.839Z,3.47
2018-01-04T05:05:59.347Z,2.40
2018-01-04T05:07:03.820Z,4.03
2018-01-04T05:08:08.317Z,2.10
2018-01-04T05:09:13.539Z,1.80
2018-01-04T05:10:18.778Z,2.50
2018-01-04T05:11:24.008Z,3.90
2018-01-04T05:12:29.263Z,2.75
2018-01-04T05:13:34.211Z,2.90
2018-01-04T05:14:38.856Z,3.62
2018-01-04T05:15:43.650Z,3.72
2018-01-04T05:16:48.363Z,3.97
2018-01-04T05:17:53.692Z,3.17
2018-01-04T05:18:58.513Z,2.37
2018-01-04T05:20:04.865Z,2.83
2018-01-04T05:21:09.349Z,2.55
2018-01-04T05:22:13.825Z,2.87
2018-01-04T05:23:19.051Z,2.40
2018-01-04T05:24:23.536Z,2.70
2018-01-04T05:25:27.993Z,1.77
2018-01-04T05:26:33.232Z,3.10
2018-01-04T05:27:37.682Z,2.37
2018-01-04T05:28:42.142Z,3.47
2018-01-04T05:29:47.413Z,2.20
2018-01-04T05:30:51.889Z,2.40
2018-01-04T05:31:57.096Z,3.28
2018-01-04T05:33:02.326Z,2.25
2018-01-04T05:34:06.797Z,3.08
2018-01-04T05:35:11.270Z,2.30
2018-01-04T05:36:15.749Z,2.92
2018-01-04T05:37:20.226Z,2.65
2018-01-04T05:38:24.704Z,1.77
2018-01-04T05:39:29.949Z,2.87
2018-01-04T05:40:34.530Z,2.60
2018-01-04T05:41:39.487Z,1.83
2018-01-04T05:42:43.995Z,2.20
2018-01-04T05:43:48.484Z,1.85
2018-01-04T05:44:53.543Z,3.22
2018-01-04T05:45:58.930Z,3.25
2018-01-04T05:47:04.204Z,3.50
2018-01-04T05:48:08.706Z,2.95
2018-01-04T05:49:13.201Z,3.00
2018-01-04T05:50:18.473Z,2.53
2018-01-04T05:51:22.990Z,2.05
2018-01-04T05:52:27.485Z,1.83
2018-01-04T05:53:31.994Z,2.62
2018-01-04T05:54:36.477Z,3.00
2018-01-04T05:55:40.986Z,2.92
2018-01-04T05:56:45.502Z,2.58
2018-01-04T05:57:50.001Z,3.20
2018-01-04T05:58:54.482Z,3.08
2018-01-04T05:59:59.025Z,2.10
2018-01-04T06:01:03.493Z,2.22
2018-01-04T06:02:08.737Z,2.75
2018-01-04T06:03:13.207Z,2.75
2018-01-04T06:04:17.685Z,2.70
2018-01-04T06:05:22.176Z,3.65
2018-01-04T06:06:26.644Z,1.65
2018-01-04T06:07:32.649Z,2.12
2018-01-04T06:08:37.128Z,2.60
2018-01-04T06:09:42.369Z,3.20
2018-01-04T06:10:46.636Z,2.25
2018-01-04T06:11:51.098Z,2.30
2018-01-04T06:12:55.601Z,2.95
2018-01-04T06:14:00.057Z,1.80
2018-01-04T06:15:04.522Z,2.80
2018-01-04T06:16:08.997Z,2.17
2018-01-04T06:17:14.226Z,2.22
2018-01-04T06:18:19.557Z,2.33
2018-01-04T06:19:24.049Z,1.77
2018-01-04T06:20:28.502Z,2.25
2018-01-04T06:21:32.658Z,2.42
2018-01-04T06:22:37.137Z,2.70
2018-01-04T06:23:41.617Z,3.10
2018-01-04T06:24:46.849Z,4.37
2018-01-04T06:25:52.087Z,3.15
2018-01-04T06:26:57.301Z,3.42
2018-01-04T06:28:02.525Z,3.35
2018-01-04T06:29:07.852Z,2.22
2018-01-04T06:30:12.324Z,3.80
2018-01-04T06:31:16.797Z,2.45
2018-01-04T06:32:22.024Z,2.83
2018-01-04T06:33:27.254Z,3.00
2018-01-04T06:34:32.512Z,2.10
2018-01-04T06:35:36.965Z,2.33
2018-01-04T06:36:41.420Z,2.87
2018-01-04T06:37:45.894Z,2.97
2018-01-04T06:38:50.365Z,2.40
2018-01-04T06:39:54.842Z,2.28
2018-01-04T06:40:59.323Z,3.15
2018-01-04T06:42:03.774Z,3.03
2018-01-04T06:43:08.249Z,2.53
2018-01-04T06:44:12.721Z,2.67
2018-01-04T06:45:17.266Z,2.53
2018-01-04T06:46:21.899Z,2.17
2018-01-04T06:47:26.371Z,2.80
2018-01-04T06:48:30.861Z,1.70
2018-01-04T06:49:35.315Z,2.12
2018-01-04T06:50:39.802Z,3.08
2018-01-04T06:51:44.294Z,1.70
2018-01-04T06:52:48.828Z,3.28
2018-01-04T06:53:53.292Z,2.92
2018-01-04T06:54:58.524Z,1.90
2018-01-04T06:56:03.770Z,2.45
2018-01-04T06:57:08.222Z,1.67
2018-01-04T06:58:12.678Z,2.40
2018-01-04T06:59:17.129Z,1.90
2018-01-04T07:00:21.586Z,3.00
2018-01-04T07:01:26.851Z,2.70
2018-01-04T07:02:31.340Z,2.97
2018-01-04T07:03:36.553Z,3.37
2018-01-04T07:04:41.773Z,2.53
2018-01-04T07:05:46.256Z,2.30
2018-01-04T07:06:50.736Z,2.80
2018-01-04T07:07:55.211Z,1.65
2018-01-04T07:08:59.663Z,2.42
2018-01-04T07:10:04.122Z,3.55
2018-01-04T07:11:08.590Z,2.97
2018-01-04T07:12:13.101Z,2.20
2018-01-04T07:13:17.568Z,3.28
2018-01-04T07:14:22.020Z,2.40
2018-01-04T07:15:26.498Z,3.00
2018-01-04T07:16:30.959Z,3.40
2018-01-04T07:17:35.458Z,3.45
2018-01-04T07:18:39.906Z,2.42
2018-01-04T07:19:44.358Z,2.97
2018-01-04T07:20:48.817Z,2.25
2018-01-04T07:21:53.291Z,2.70
2018-01-04T07:22:57.774Z,3.83
2018-01-04T07:24:02.997Z,3.50
2018-01-04T07:25:08.300Z,2.50
2018-01-04T07:26:12.768Z,2.20
2018-01-04T07:27:18.030Z,3.60
2018-01-04T07:28:22.528Z,2.50
2018-01-04T07:29:26.992Z,2.45
2018-01-04T07:30:32.226Z,2.22
2018-01-04T07:31:36.671Z,2.55
2018-01-04T07:32:41.213Z,2.50
2018-01-04T07:33:45.715Z,3.30
2018-01-04T07:34:50.216Z,3.97
2018-01-04T07:35:54.683Z,2.92
2018-01-04T07:36:59.133Z,3.05
2018-01-04T07:38:03.594Z,3.65
2018-01-04T07:39:09.586Z,2.17
2018-01-04T07:40:14.045Z,3.28
2018-01-04T07:41:18.503Z,2.30
2018-01-04T07:42:22.984Z,2.15
2018-01-04T07:43:27.438Z,3.30
2018-01-04T07:44:31.944Z,3.12
2018-01-04T07:45:36.390Z,3.22
2018-01-04T07:46:40.849Z,2.62
2018-01-04T07:47:46.081Z,3.70
2018-01-04T07:48:51.318Z,4.10
2018-01-04T07:49:55.809Z,4.07
2018-01-04T07:51:01.050Z,2.83
2018-01-04T07:52:05.523Z,2.60
2018-01-04T07:53:09.984Z,6.72
2018-01-04T07:54:14.514Z,2.95
2018-01-04T07:55:19.922Z,3.28
2018-01-04T07:56:24.376Z,2.70
2018-01-04T07:57:28.834Z,3.10
2018-01-04T07:58:33.296Z,2.70
2018-01-04T07:59:37.768Z,2.85
2018-01-04T08:00:42.265Z,2.97
2018-01-04T08:01:47.480Z,2.20
2018-01-04T08:02:51.958Z,2.75
2018-01-04T08:03:56.107Z,3.25
2018-01-04T08:05:01.353Z,2.60
2018-01-04T08:06:05.857Z,3.05
2018-01-04T08:07:11.092Z,3.60
2018-01-04T08:08:16.346Z,3.37
2018-01-04T08:09:20.797Z,3.00
2018-01-04T08:10:26.775Z,2.85
2018-01-04T08:11:32.048Z,2.92
2018-01-04T08:12:36.503Z,3.22
2018-01-04T08:13:41.721Z,3.12
2018-01-04T08:14:46.937Z,3.70
2018-01-04T08:15:51.428Z,3.42
2018-01-04T08:16:55.914Z,2.65
2018-01-04T08:18:00.391Z,2.55
2018-01-04T08:19:04.838Z,3.60
2018-01-04T08:20:09.290Z,6.30
2018-01-04T08:21:13.783Z,1.98
2018-01-04T08:22:18.276Z,2.37
2018-01-04T08:23:22.749Z,2.40
2018-01-04T08:24:27.203Z,2.97
2018-01-04T08:25:31.669Z,1.95
2018-01-04T08:26:36.156Z,2.35
2018-01-04T08:27:40.653Z,2.90
2018-01-04T08:28:45.113Z,2.87
2018-01-04T08:29:50.330Z,2.10
2018-01-04T08:30:55.550Z,1.92
2018-01-04T08:32:00.033Z,1.77
2018-01-04T08:33:04.502Z,3.28
2018-01-04T08:34:08.958Z,2.37
2018-01-04T08:35:13.408Z,1.70
2018-01-04T08:36:18.656Z,2.58
2018-01-04T08:37:23.896Z,2.83
2018-01-04T08:38:28.400Z,2.90
2018-01-04T08:39:32.534Z,2.12
2018-01-04T08:40:36.993Z,2.20
2018-01-04T08:41:42.289Z,3.00
2018-01-04T08:42:46.930Z,2.33
2018-01-04T08:43:51.406Z,2.35
2018-01-04T08:44:55.864Z,2.15
2018-01-04T08:46:01.152Z,3.10
2018-01-04T08:47:05.626Z,1.62
2018-01-04T08:48:10.099Z,4.05
2018-01-04T08:49:14.615Z,2.25
2018-01-04T08:50:19.844Z,3.15
2018-01-04T08:51:25.808Z,2.20
2018-01-04T08:52:31.045Z,2.05
2018-01-04T08:53:36.262Z,2.45
2018-01-04T08:54:41.506Z,2.10
2018-01-04T08:55:45.968Z,2.30
2018-01-04T08:56:50.426Z,3.20
2018-01-04T08:57:55.668Z,2.87
2018-01-04T08:59:00.148Z,2.25
2018-01-04T09:00:04.011Z,3.28
2018-01-04T09:01:08.508Z,1.73
2018-01-04T09:02:12.981Z,2.50
2018-01-04T09:03:18.221Z,2.92
2018-01-04T09:04:22.700Z,3.80
2018-01-04T09:05:27.188Z,2.50
2018-01-04T09:06:31.647Z,2.40
2018-01-04T09:07:36.888Z,4.45
2018-01-04T09:08:41.360Z,2.20
2018-01-04T09:09:45.812Z,2.58
2018-01-04T09:10:50.304Z,2.20
2018-01-04T09:11:55.527Z,3.22
2018-01-04T09:13:00.772Z,3.25
2018-01-04T09:14:05.988Z,2.85
2018-01-04T09:15:11.235Z,2.58
2018-01-04T09:16:15.761Z,2.90
2018-01-04T09:17:21.013Z,3.60
2018-01-04T09:18:25.479Z,3.17
2018-01-04T09:20:30.478Z,3.10
2018-01-04T09:21:34.954Z,2.50
2018-01-04T09:22:39.432Z,3.50
2018-01-04T09:23:44.105Z,2.65
2018-01-04T09:24:48.589Z,2.95
2018-01-04T09:25:53.146Z,2.30
2018-01-04T09:26:57.737Z,2.20
2018-01-04T09:28:02.203Z,2.25
2018-01-04T09:29:06.670Z,3.08
2018-01-04T09:30:11.139Z,3.47
2018-01-04T09:31:15.617Z,1.80
2018-01-04T09:32:20.870Z,2.58
2018-01-04T09:33:25.370Z,2.47
2018-01-04T09:34:30.625Z,3.80
2018-01-04T09:35:35.121Z,3.10
2018-01-04T09:36:40.346Z,4.47
2018-01-04T09:37:44.846Z,2.90
2018-01-04T09:38:50.157Z,2.20
2018-01-04T09:39:54.624Z,5.10
2018-01-04T09:40:59.085Z,3.20
2018-01-04T09:42:03.574Z,4.22
2018-01-04T09:43:08.058Z,5.15
2018-01-04T09:44:12.541Z,2.35
2018-01-04T09:45:17.768Z,2.55
2018-01-04T09:46:23.008Z,3.90
2018-01-04T09:47:28.222Z,2.75
2018-01-04T09:48:33.206Z,3.67
2018-01-04T09:49:37.666Z,2.17
2018-01-04T09:50:42.900Z,2.70
2018-01-04T09:51:48.136Z,2.97
2018-01-04T09:52:52.273Z,4.12
2018-01-04T09:53:56.796Z,4.28
2018-01-04T09:55:01.278Z,2.35
2018-01-04T09:56:05.764Z,3.33
2018-01-04T09:57:10.994Z,2.62
2018-01-04T09:58:16.232Z,3.55
2018-01-04T09:59:20.736Z,2.00
2018-01-04T10:00:25.971Z,3.50
2018-01-04T10:01:31.197Z,2.60
2018-01-04T10:02:36.929Z,3.40
2018-01-04T10:03:42.172Z,2.53
2018-01-04T10:04:46.657Z,2.90
2018-01-04T10:05:51.125Z,2.70
2018-01-04T10:06:55.597Z,6.15
2018-01-04T10:08:00.051Z,3.35
2018-01-04T10:09:03.895Z,2.10
2018-01-04T10:10:09.176Z,2.67
2018-01-04T10:11:13.645Z,2.80
2018-01-04T10:12:18.884Z,2.25
2018-01-04T10:13:23.382Z,3.33
2018-01-04T10:14:28.945Z,3.15
2018-01-04T10:15:33.410Z,3.03
2018-01-04T10:16:37.870Z,5.15
2018-01-04T10:17:42.375Z,2.90
2018-01-04T10:18:47.060Z,3.10
2018-01-04T10:19:51.528Z,2.45
2018-01-04T10:20:56.008Z,3.40
2018-01-04T10:22:00.498Z,3.65
2018-01-04T10:23:04.970Z,2.70
2018-01-04T10:24:09.436Z,3.12
2018-01-04T10:25:14.667Z,2.45
2018-01-04T10:26:19.914Z,2.50
2018-01-04T10:27:24.402Z,3.08
2018-01-04T10:28:29.641Z,3.17
2018-01-04T10:29:34.863Z,2.50
2018-01-04T10:30:39.568Z,3.42
2018-01-04T10:31:44.815Z,3.55
2018-01-04T10:32:50.056Z,2.62
2018-01-04T10:33:54.506Z,2.95
2018-01-04T10:34:58.982Z,2.95
2018-01-04T10:36:03.434Z,3.03
2018-01-04T10:37:08.712Z,2.92
2018-01-04T10:38:13.166Z,1.62
2018-01-04T10:39:17.626Z,2.97
2018-01-04T10:40:22.874Z,2.65
2018-01-04T10:41:27.328Z,2.60
2018-01-04T10:42:32.591Z,2.78
2018-01-04T10:43:37.841Z,5.97
2018-01-04T10:44:43.051Z,4.30
2018-01-04T10:45:48.305Z,2.50
2018-01-04T10:46:52.785Z,2.12
2018-01-04T10:47:58.044Z,2.45
2018-01-04T10:49:02.535Z,3.20
2018-01-04T10:50:07.753Z,2.50
2018-01-04T10:51:12.300Z,3.37
2018-01-04T10:52:16.789Z,2.95
2018-01-04T10:53:22.038Z,2.92
2018-01-04T10:54:26.502Z,2.70
2018-01-04T10:55:30.991Z,4.22
2018-01-04T10:56:35.460Z,2.87
2018-01-04T10:57:39.926Z,3.65
2018-01-04T10:58:44.430Z,2.28
2018-01-04T10:59:48.900Z,3.37
2018-01-04T11:00:53.448Z,3.35
2018-01-04T11:01:57.908Z,2.75
2018-01-04T11:03:03.131Z,2.37
2018-01-04T11:04:08.393Z,3.12
2018-01-04T11:05:12.930Z,7.53
2018-01-04T11:06:17.396Z,2.97
2018-01-04T11:07:22.640Z,2.55
2018-01-04T11:08:27.114Z,3.20
2018-01-04T11:09:32.391Z,2.97
2018-01-04T11:10:36.852Z,3.00
2018-01-04T11:11:41.307Z,2.20
2018-01-04T11:12:45.761Z,3.47
2018-01-04T11:13:50.213Z,2.17
2018-01-04T11:14:54.713Z,3.15
2018-01-04T11:15:59.953Z,3.25
2018-01-04T11:17:05.174Z,2.70
2018-01-04T11:18:10.416Z,3.00
2018-01-04T11:19:15.657Z,2.80
2018-01-04T11:20:20.193Z,2.33
2018-01-04T11:21:24.637Z,3.10
2018-01-04T11:22:29.109Z,2.90
2018-01-04T11:23:33.584Z,3.35
2018-01-04T11:24:38.801Z,2.30
2018-01-04T11:25:44.053Z,2.53
2018-01-04T11:26:48.514Z,2.80
2018-01-04T11:27:52.981Z,3.00
2018-01-04T11:28:57.441Z,2.53
2018-01-04T11:30:02.686Z,3.33
2018-01-04T11:31:07.167Z,2.92
2018-01-04T11:32:11.644Z,3.30
2018-01-04T11:33:16.107Z,3.03
2018-01-04T11:34:20.702Z,2.80
2018-01-04T11:35:25.168Z,2.10
2018-01-04T11:36:30.414Z,2.20
2018-01-04T11:37:34.862Z,2.65
2018-01-04T11:38:39.340Z,3.45
2018-01-04T11:39:43.798Z,3.00
2018-01-04T11:40:49.053Z,2.25
2018-01-04T11:41:54.319Z,3.85
2018-01-04T11:42:58.774Z,3.10
2018-01-04T11:44:03.240Z,2.00
2018-01-04T11:45:07.706Z,2.25
2018-01-04T11:46:12.078Z,3.97
2018-01-04T11:47:16.564Z,2.08
2018-01-04T11:48:21.052Z,2.83
2018-01-04T11:49:25.522Z,3.05
2018-01-04T11:50:29.985Z,3.55
2018-01-04T11:51:34.465Z,2.15
2018-01-04T11:52:38.987Z,1.55
2018-01-04T11:53:44.228Z,4.18
2018-01-04T11:54:49.491Z,2.08
2018-01-04T11:55:53.949Z,1.80
2018-01-04T11:56:59.203Z,2.00
2018-01-04T11:58:03.369Z,2.50
2018-01-04T11:59:07.842Z,1.83
2018-01-04T12:00:12.316Z,2.70
2018-01-04T12:01:17.571Z,2.28
2018-01-04T12:02:22.044Z,2.37
2018-01-04T12:03:26.551Z,2.42
2018-01-04T12:04:31.018Z,2.80
2018-01-04T12:05:35.475Z,2.50
2018-01-04T12:06:39.948Z,1.83
2018-01-04T12:07:44.423Z,3.58
2018-01-04T12:08:49.682Z,2.62
2018-01-04T12:09:54.156Z,1.85
2018-01-04T12:10:59.472Z,2.37
2018-01-04T12:12:03.926Z,3.17
2018-01-04T12:13:08.421Z,3.45
2018-01-04T12:14:12.903Z,2.55
2018-01-04T12:15:17.385Z,2.05
2018-01-04T12:16:21.882Z,1.73
2018-01-04T12:17:26.357Z,1.98
2018-01-04T12:18:31.635Z,2.87
2018-01-04T12:19:36.122Z,2.35
2018-01-04T12:20:40.592Z,2.55
2018-01-04T12:21:45.067Z,3.20
2018-01-04T12:22:49.514Z,2.25
2018-01-04T12:23:53.693Z,2.62
2018-01-04T12:24:58.247Z,2.37
2018-01-04T12:26:02.898Z,2.05
2018-01-04T12:27:07.394Z,2.15
2018-01-04T12:28:11.876Z,3.37
2018-01-04T12:29:16.343Z,2.40
2018-01-04T12:30:20.848Z,2.62
2018-01-04T12:31:25.322Z,2.33
2018-01-04T12:32:30.538Z,1.83
2018-01-04T12:33:35.008Z,2.42
2018-01-04T12:34:39.464Z,3.05
2018-01-04T12:35:43.946Z,2.70
2018-01-04T12:36:48.444Z,3.28
2018-01-04T12:37:52.958Z,3.30
2018-01-04T12:38:57.477Z,2.62
2018-01-04T12:40:01.950Z,2.60
2018-01-04T12:41:06.443Z,2.40
2018-01-04T12:42:11.693Z,2.67
2018-01-04T12:43:16.172Z,2.67
2018-01-04T12:44:20.625Z,2.85
2018-01-04T12:45:25.082Z,2.35
2018-01-04T12:46:29.581Z,2.30
2018-01-04T12:47:34.048Z,2.70
2018-01-04T12:48:39.258Z,2.70
2018-01-04T12:49:44.497Z,3.47
2018-01-04T12:50:49.725Z,2.50
2018-01-04T12:51:54.976Z,2.67
2018-01-04T12:52:59.436Z,2.58
2018-01-04T12:54:04.017Z,2.87
2018-01-04T12:55:08.475Z,2.72
2018-01-04T12:56:12.925Z,2.65
2018-01-04T12:57:17.415Z,2.58
2018-01-04T12:58:21.865Z,2.72
2018-01-04T12:59:26.327Z,2.83
2018-01-04T13:00:31.567Z,2.75
2018-01-04T13:01:36.825Z,3.50
2018-01-04T13:02:41.338Z,2.72
2018-01-04T13:03:45.816Z,3.12
2018-01-04T13:04:51.132Z,2.78
2018-01-04T13:05:55.713Z,3.30
2018-01-04T13:07:00.192Z,2.30
2018-01-04T13:08:04.736Z,2.58
2018-01-04T13:09:09.212Z,3.60
2018-01-04T13:10:13.762Z,3.10
2018-01-04T13:11:19.750Z,3.42
2018-01-04T13:12:24.998Z,3.47
2018-01-04T13:13:29.278Z,2.83
2018-01-04T13:14:33.740Z,3.70
2018-01-04T13:15:38.200Z,4.75
2018-01-04T13:16:42.673Z,3.67
2018-01-04T13:17:47.150Z,4.95
2018-01-04T13:18:51.648Z,3.72
2018-01-04T13:19:56.889Z,2.80
2018-01-04T13:21:02.128Z,3.00
2018-01-04T13:22:06.593Z,2.40
2018-01-04T13:23:11.129Z,2.92
2018-01-04T13:24:16.376Z,2.85
2018-01-04T13:25:20.849Z,2.62
2018-01-04T13:26:26.087Z,3.08
2018-01-04T13:27:30.669Z,4.40
2018-01-04T13:28:35.135Z,2.12
2018-01-04T13:29:39.652Z,3.47
2018-01-04T13:30:44.125Z,3.20
2018-01-04T13:31:48.250Z,2.90
2018-01-04T13:32:53.500Z,3.05
2018-01-04T13:33:57.985Z,2.85
2018-01-04T13:35:03.980Z,3.15
2018-01-04T13:36:08.446Z,3.28
2018-01-04T13:37:13.693Z,4.10
2018-01-04T13:38:18.150Z,2.90
2018-01-04T13:39:22.631Z,3.80
2018-01-04T13:40:27.118Z,3.08
2018-01-04T13:41:32.364Z,3.75
2018-01-04T13:42:36.818Z,3.67
2018-01-04T13:43:41.281Z,2.65
2018-01-04T13:44:45.742Z,2.80
2018-01-04T13:45:50.248Z,3.10
2018-01-04T13:46:54.741Z,3.12
2018-01-04T13:47:59.422Z,3.00
2018-01-04T13:49:04.681Z,3.47
2018-01-04T13:50:09.235Z,2.80
2018-01-04T13:51:13.741Z,2.90
2018-01-04T13:52:19.045Z,3.45
2018-01-04T13:53:23.503Z,5.40
2018-01-04T13:54:27.966Z,3.75
2018-01-04T13:55:32.428Z,3.45
2018-01-04T13:56:36.934Z,4.25
2018-01-04T13:57:41.413Z,3.58
2018-01-04T13:58:45.895Z,3.65
2018-01-04T13:59:50.360Z,4.18
2018-01-04T14:00:54.822Z,3.78
2018-01-04T14:01:59.319Z,3.17
2018-01-04T14:03:03.872Z,3.00
2018-01-04T14:04:08.998Z,4.68
2018-01-04T14:05:13.470Z,3.25
2018-01-04T14:06:17.949Z,2.97
2018-01-04T14:07:22.434Z,3.05
2018-01-04T14:08:27.001Z,3.70
2018-01-04T14:09:31.466Z,4.05
2018-01-04T14:10:36.914Z,3.03
2018-01-04T14:11:41.406Z,2.80
2018-01-04T14:12:45.913Z,3.55
2018-01-04T14:13:50.375Z,2.75
2018-01-04T14:14:55.595Z,2.45
2018-01-04T14:16:00.847Z,3.17
2018-01-04T14:17:05.322Z,3.70
2018-01-04T14:18:09.814Z,4.00
2018-01-04T14:19:14.303Z,2.90
2018-01-04T14:20:18.758Z,3.37
2018-01-04T14:21:24.063Z,3.30
2018-01-04T14:22:28.522Z,2.85
2018-01-04T14:23:33.685Z,3.20
2018-01-04T14:24:38.169Z,2.80
2018-01-04T14:25:42.648Z,3.30
2018-01-04T14:26:47.124Z,3.00
2018-01-04T14:27:51.597Z,2.97
2018-01-04T14:28:56.863Z,3.30
2018-01-04T14:30:01.334Z,3.03
2018-01-04T14:31:06.582Z,3.40
2018-01-04T14:32:11.102Z,3.42
2018-01-04T14:33:15.567Z,3.35
2018-01-04T14:34:20.836Z,4.30
2018-01-04T14:35:25.387Z,2.67